sensor_id;sensor_type;location;lat;lon;timestamp;pressure;altitude;pressure_sealevel;temperature;humidity
8059;BME280;4072;42.668;23.396;2022-11-03T00:01:48;95599.09;;;17.66;45.29
8059;BME280;4072;42.668;23.396;2022-11-03T00:04:18;95606.59;;;17.65;45.41
8059;BME280;4072;42.668;23.396;2022-11-03T00:06:48;95608.00;;;17.61;45.72
8059;BME280;4072;42.668;23.396;2022-11-03T00:09:19;95604.16;;;17.52;46.14
8059;BME280;4072;42.668;23.396;2022-11-03T00:11:49;95614.16;;;17.56;45.93
8059;BME280;4072;42.668;23.396;2022-11-03T00:14:19;95621.81;;;17.72;45.73
8059;BME280;4072;42.668;23.396;2022-11-03T00:16:47;95615.28;;;17.64;45.91
8059;BME280;4072;42.668;23.396;2022-11-03T00:19:17;95613.50;;;17.61;46.29
8059;BME280;4072;42.668;23.396;2022-11-03T00:21:45;95609.78;;;17.64;46.22
8059;BME280;4072;42.668;23.396;2022-11-03T00:24:13;95617.84;;;17.73;46.08
8059;BME280;4072;42.668;23.396;2022-11-03T00:26:43;95607.47;;;17.57;46.50
8059;BME280;4072;42.668;23.396;2022-11-03T00:29:13;95613.19;;;17.59;47.71
8059;BME280;4072;42.668;23.396;2022-11-03T00:31:44;95609.09;;;17.69;47.87
8059;BME280;4072;42.668;23.396;2022-11-03T00:34:17;95603.50;;;17.78;48.61
8059;BME280;4072;42.668;23.396;2022-11-03T00:36:45;95584.88;;;17.62;48.72
8059;BME280;4072;42.668;23.396;2022-11-03T00:39:13;95609.09;;;17.69;49.29
8059;BME280;4072;42.668;23.396;2022-11-03T00:41:45;95608.16;;;17.72;49.47
8059;BME280;4072;42.668;23.396;2022-11-03T00:44:13;95608.69;;;17.76;49.78
8059;BME280;4072;42.668;23.396;2022-11-03T00:46:42;95614.84;;;17.71;50.30
8059;BME280;4072;42.668;23.396;2022-11-03T00:49:11;95613.75;;;17.63;50.23
8059;BME280;4072;42.668;23.396;2022-11-03T00:51:40;95616.63;;;17.54;50.75
8059;BME280;4072;42.668;23.396;2022-11-03T00:54:08;95623.72;;;17.45;50.78
8059;BME280;4072;42.668;23.396;2022-11-03T00:56:39;95614.25;;;17.26;50.93
8059;BME280;4072;42.668;23.396;2022-11-03T00:59:09;95630.50;;;17.15;51.16
8059;BME280;4072;42.668;23.396;2022-11-03T01:01:40;95628.59;;;17.21;51.27
8059;BME280;4072;42.668;23.396;2022-11-03T01:04:13;95616.94;;;17.06;51.42
8059;BME280;4072;42.668;23.396;2022-11-03T01:06:59;95614.72;;;16.90;52.21
8059;BME280;4072;42.668;23.396;2022-11-03T01:09:30;95610.19;;;16.87;52.71
8059;BME280;4072;42.668;23.396;2022-11-03T01:12:00;95620.25;;;17.10;52.41
8059;BME280;4072;42.668;23.396;2022-11-03T01:14:31;95619.72;;;17.26;52.66
8059;BME280;4072;42.668;23.396;2022-11-03T01:17:00;95599.69;;;17.50;52.89
8059;BME280;4072;42.668;23.396;2022-11-03T01:19:29;95603.91;;;17.71;52.73
8059;BME280;4072;42.668;23.396;2022-11-03T01:21:57;95608.63;;;17.70;53.17
8059;BME280;4072;42.668;23.396;2022-11-03T01:24:26;95606.84;;;17.67;54.11
8059;BME280;4072;42.668;23.396;2022-11-03T01:26:54;95611.56;;;17.47;55.41
8059;BME280;4072;42.668;23.396;2022-11-03T01:29:23;95594.94;;;17.15;56.54
8059;BME280;4072;42.668;23.396;2022-11-03T01:31:53;95606.44;;;17.19;58.33
8059;BME280;4072;42.668;23.396;2022-11-03T01:34:21;95613.31;;;17.15;59.07
8059;BME280;4072;42.668;23.396;2022-11-03T01:36:50;95604.66;;;17.16;59.34
8059;BME280;4072;42.668;23.396;2022-11-03T01:39:18;95600.13;;;17.13;59.84
8059;BME280;4072;42.668;23.396;2022-11-03T01:41:49;95606.22;;;17.03;60.25
8059;BME280;4072;42.668;23.396;2022-11-03T01:44:35;95613.06;;;17.33;59.49
8059;BME280;4072;42.668;23.396;2022-11-03T01:47:12;95606.75;;;17.41;59.09
8059;BME280;4072;42.668;23.396;2022-11-03T01:49:46;95612.25;;;17.62;58.01
8059;BME280;4072;42.668;23.396;2022-11-03T01:52:21;95611.47;;;17.61;57.97
8059;BME280;4072;42.668;23.396;2022-11-03T01:54:56;95615.50;;;17.45;59.24
8059;BME280;4072;42.668;23.396;2022-11-03T01:57:29;95607.19;;;17.55;58.65
8059;BME280;4072;42.668;23.396;2022-11-03T02:00:01;95623.69;;;17.25;60.62
8059;BME280;4072;42.668;23.396;2022-11-03T02:02:34;95577.22;;;16.91;61.87
8059;BME280;4072;42.668;23.396;2022-11-03T02:05:03;95633.50;;;17.17;62.38
8059;BME280;4072;42.668;23.396;2022-11-03T02:07:37;95630.88;;;17.08;63.65
8059;BME280;4072;42.668;23.396;2022-11-03T02:10:08;95622.97;;;17.10;64.17
8059;BME280;4072;42.668;23.396;2022-11-03T02:12:36;95598.56;;;16.92;65.08
8059;BME280;4072;42.668;23.396;2022-11-03T02:15:09;95607.53;;;17.07;65.47
8059;BME280;4072;42.668;23.396;2022-11-03T02:17:41;95617.22;;;17.08;65.11
8059;BME280;4072;42.668;23.396;2022-11-03T02:20:14;95611.66;;;17.17;64.63
8059;BME280;4072;42.668;23.396;2022-11-03T02:25:42;95608.63;;;17.15;65.25
8059;BME280;4072;42.668;23.396;2022-11-03T02:28:13;95629.25;;;17.16;65.41
8059;BME280;4072;42.668;23.396;2022-11-03T02:30:44;95621.19;;;17.07;66.05
8059;BME280;4072;42.668;23.396;2022-11-03T02:33:23;95610.72;;;17.06;66.00
8059;BME280;4072;42.668;23.396;2022-11-03T02:35:57;95613.94;;;17.04;66.26
8059;BME280;4072;42.668;23.396;2022-11-03T02:38:27;95611.78;;;16.94;66.67
8059;BME280;4072;42.668;23.396;2022-11-03T02:41:02;95616.72;;;16.75;67.92
8059;BME280;4072;42.668;23.396;2022-11-03T02:43:33;95626.63;;;16.58;69.47
8059;BME280;4072;42.668;23.396;2022-11-03T02:46:03;95617.56;;;16.52;70.38
8059;BME280;4072;42.668;23.396;2022-11-03T02:48:34;95619.47;;;16.61;70.03
8059;BME280;4072;42.668;23.396;2022-11-03T02:51:03;95620.03;;;16.50;70.90
8059;BME280;4072;42.668;23.396;2022-11-03T02:53:37;95624.28;;;16.51;71.95
8059;BME280;4072;42.668;23.396;2022-11-03T02:56:10;95621.16;;;16.58;71.31
8059;BME280;4072;42.668;23.396;2022-11-03T02:58:44;95626.44;;;16.47;72.45
8059;BME280;4072;42.668;23.396;2022-11-03T03:01:18;95622.81;;;16.41;72.48
8059;BME280;4072;42.668;23.396;2022-11-03T03:03:53;95599.00;;;16.27;72.59
8059;BME280;4072;42.668;23.396;2022-11-03T03:06:24;95619.44;;;16.46;72.13
8059;BME280;4072;42.668;23.396;2022-11-03T03:08:56;95625.69;;;16.61;70.54
8059;BME280;4072;42.668;23.396;2022-11-03T03:11:27;95624.34;;;16.71;69.31
8059;BME280;4072;42.668;23.396;2022-11-03T03:14:09;95617.19;;;16.74;68.99
8059;BME280;4072;42.668;23.396;2022-11-03T03:16:44;95632.56;;;16.71;68.81
8059;BME280;4072;42.668;23.396;2022-11-03T03:19:21;95631.63;;;16.60;69.62
8059;BME280;4072;42.668;23.396;2022-11-03T03:21:56;95620.41;;;16.43;70.13
8059;BME280;4072;42.668;23.396;2022-11-03T03:24:32;95612.84;;;16.38;70.58
8059;BME280;4072;42.668;23.396;2022-11-03T03:27:08;95618.88;;;16.42;70.31
8059;BME280;4072;42.668;23.396;2022-11-03T03:29:40;95577.41;;;16.00;71.21
8059;BME280;4072;42.668;23.396;2022-11-03T03:32:13;95622.81;;;16.12;72.49
8059;BME280;4072;42.668;23.396;2022-11-03T03:34:42;95623.75;;;16.09;73.29
8059;BME280;4072;42.668;23.396;2022-11-03T03:37:13;95623.53;;;15.98;74.28
8059;BME280;4072;42.668;23.396;2022-11-03T03:39:47;95621.22;;;15.82;75.93
8059;BME280;4072;42.668;23.396;2022-11-03T03:42:20;95629.66;;;15.70;76.96
8059;BME280;4072;42.668;23.396;2022-11-03T03:44:49;95629.28;;;15.62;78.76
8059;BME280;4072;42.668;23.396;2022-11-03T03:47:20;95627.38;;;15.54;79.54
8059;BME280;4072;42.668;23.396;2022-11-03T03:49:50;95633.91;;;15.47;81.27
8059;BME280;4072;42.668;23.396;2022-11-03T03:52:18;95629.75;;;15.37;82.20
8059;BME280;4072;42.668;23.396;2022-11-03T03:54:47;95630.41;;;15.23;83.36
8059;BME280;4072;42.668;23.396;2022-11-03T03:57:17;95600.72;;;14.93;84.44
8059;BME280;4072;42.668;23.396;2022-11-03T03:59:47;95631.81;;;15.10;85.58
8059;BME280;4072;42.668;23.396;2022-11-03T04:02:16;95632.91;;;15.03;86.67
8059;BME280;4072;42.668;23.396;2022-11-03T04:04:44;95630.84;;;14.98;87.63
8059;BME280;4072;42.668;23.396;2022-11-03T04:07:12;95626.31;;;14.86;88.54
8059;BME280;4072;42.668;23.396;2022-11-03T04:09:58;95598.59;;;14.55;89.66
8059;BME280;4072;42.668;23.396;2022-11-03T04:12:26;95630.34;;;14.58;90.10
8059;BME280;4072;42.668;23.396;2022-11-03T04:15:13;95626.50;;;14.05;92.64
8059;BME280;4072;42.668;23.396;2022-11-03T04:17:58;95640.41;;;13.80;93.88
8059;BME280;4072;42.668;23.396;2022-11-03T04:20:43;95634.50;;;13.54;97.44
8059;BME280;4072;42.668;23.396;2022-11-03T04:23:28;95639.75;;;13.31;99.16
8059;BME280;4072;42.668;23.396;2022-11-03T04:25:56;95633.50;;;13.12;100.00
8059;BME280;4072;42.668;23.396;2022-11-03T04:28:25;95631.03;;;12.96;100.00
8059;BME280;4072;42.668;23.396;2022-11-03T04:30:57;95641.41;;;12.89;100.00
8059;BME280;4072;42.668;23.396;2022-11-03T04:33:28;95629.59;;;12.74;100.00
8059;BME280;4072;42.668;23.396;2022-11-03T04:35:58;95618.94;;;12.49;100.00
8059;BME280;4072;42.668;23.396;2022-11-03T04:38:28;95583.72;;;12.06;100.00
8059;BME280;4072;42.668;23.396;2022-11-03T04:40:57;95628.69;;;12.16;100.00
8059;BME280;4072;42.668;23.396;2022-11-03T04:43:31;95618.00;;;11.91;100.00
8059;BME280;4072;42.668;23.396;2022-11-03T04:46:01;95645.00;;;11.81;100.00
8059;BME280;4072;42.668;23.396;2022-11-03T04:48:30;95640.28;;;11.73;100.00
8059;BME280;4072;42.668;23.396;2022-11-03T04:50:59;95645.81;;;11.69;100.00
8059;BME280;4072;42.668;23.396;2022-11-03T04:53:31;95631.53;;;11.56;100.00
8059;BME280;4072;42.668;23.396;2022-11-03T04:55:59;95590.41;;;11.36;100.00
8059;BME280;4072;42.668;23.396;2022-11-03T04:58:34;95641.50;;;11.59;100.00
8059;BME280;4072;42.668;23.396;2022-11-03T05:01:09;95637.38;;;11.55;100.00
8059;BME280;4072;42.668;23.396;2022-11-03T05:03:42;95643.88;;;11.57;100.00
8059;BME280;4072;42.668;23.396;2022-11-03T05:06:14;95639.03;;;11.52;100.00
8059;BME280;4072;42.668;23.396;2022-11-03T05:08:47;95640.22;;;11.51;100.00
8059;BME280;4072;42.668;23.396;2022-11-03T05:11:20;95648.78;;;11.50;100.00
8059;BME280;4072;42.668;23.396;2022-11-03T05:13:49;95604.19;;;11.29;100.00
8059;BME280;4072;42.668;23.396;2022-11-03T05:16:20;95649.75;;;11.43;100.00
8059;BME280;4072;42.668;23.396;2022-11-03T05:18:50;95646.13;;;11.37;100.00
8059;BME280;4072;42.668;23.396;2022-11-03T05:21:20;95650.00;;;11.36;100.00
8059;BME280;4072;42.668;23.396;2022-11-03T05:23:51;95654.69;;;11.36;100.00
8059;BME280;4072;42.668;23.396;2022-11-03T05:26:24;95655.34;;;11.27;100.00
8059;BME280;4072;42.668;23.396;2022-11-03T05:28:54;95661.47;;;11.40;100.00
8059;BME280;4072;42.668;23.396;2022-11-03T05:31:29;95648.91;;;11.46;100.00
8059;BME280;4072;42.668;23.396;2022-11-03T05:34:00;95660.66;;;11.77;100.00
8059;BME280;4072;42.668;23.396;2022-11-03T05:36:30;95668.09;;;11.86;100.00
8059;BME280;4072;42.668;23.396;2022-11-03T05:39:21;95675.97;;;11.93;100.00
8059;BME280;4072;42.668;23.396;2022-11-03T05:41:53;95672.44;;;11.83;100.00
8059;BME280;4072;42.668;23.396;2022-11-03T05:44:26;95676.47;;;12.01;100.00
8059;BME280;4072;42.668;23.396;2022-11-03T05:46:57;95680.28;;;12.03;100.00
8059;BME280;4072;42.668;23.396;2022-11-03T05:49:31;95682.09;;;12.06;100.00
8059;BME280;4072;42.668;23.396;2022-11-03T05:52:00;95688.41;;;12.03;100.00
8059;BME280;4072;42.668;23.396;2022-11-03T05:54:31;95665.00;;;11.97;100.00
8059;BME280;4072;42.668;23.396;2022-11-03T05:57:01;95692.34;;;12.24;100.00
8059;BME280;4072;42.668;23.396;2022-11-03T05:59:30;95696.78;;;12.61;100.00
8059;BME280;4072;42.668;23.396;2022-11-03T06:02:00;95697.47;;;12.74;98.55
8059;BME280;4072;42.668;23.396;2022-11-03T06:04:31;95692.81;;;12.83;97.01
8059;BME280;4072;42.668;23.396;2022-11-03T06:07:11;95704.47;;;12.93;96.11
8059;BME280;4072;42.668;23.396;2022-11-03T06:09:41;95708.16;;;12.99;95.13
8059;BME280;4072;42.668;23.396;2022-11-03T06:12:13;95693.06;;;12.98;95.45
8059;BME280;4072;42.668;23.396;2022-11-03T06:14:45;95706.28;;;13.17;94.66
8059;BME280;4072;42.668;23.396;2022-11-03T06:17:19;95716.44;;;13.26;93.68
8059;BME280;4072;42.668;23.396;2022-11-03T06:19:51;95711.47;;;13.33;92.13
8059;BME280;4072;42.668;23.396;2022-11-03T06:22:23;95715.84;;;13.31;91.33
8059;BME280;4072;42.668;23.396;2022-11-03T06:24:55;95717.50;;;13.28;91.91
8059;BME280;4072;42.668;23.396;2022-11-03T06:27:29;95713.13;;;13.31;92.41
8059;BME280;4072;42.668;23.396;2022-11-03T06:30:05;95718.88;;;13.42;91.86
8059;BME280;4072;42.668;23.396;2022-11-03T06:32:47;95725.13;;;13.60;91.73
8059;BME280;4072;42.668;23.396;2022-11-03T06:35:16;95722.56;;;13.57;92.60
8059;BME280;4072;42.668;23.396;2022-11-03T06:37:45;95718.59;;;13.49;90.96
8059;BME280;4072;42.668;23.396;2022-11-03T06:40:32;95704.97;;;13.31;91.32
8059;BME280;4072;42.668;23.396;2022-11-03T06:43:10;95731.13;;;13.37;90.89
8059;BME280;4072;42.668;23.396;2022-11-03T06:45:48;95723.41;;;13.36;91.57
8059;BME280;4072;42.668;23.396;2022-11-03T06:48:27;95730.06;;;13.44;91.79
8059;BME280;4072;42.668;23.396;2022-11-03T06:50:57;95734.63;;;13.47;91.39
8059;BME280;4072;42.668;23.396;2022-11-03T06:53:30;95738.25;;;13.53;91.79
8059;BME280;4072;42.668;23.396;2022-11-03T06:56:00;95734.97;;;13.67;90.71
8059;BME280;4072;42.668;23.396;2022-11-03T06:58:31;95726.50;;;13.74;91.27
8059;BME280;4072;42.668;23.396;2022-11-03T07:01:01;95735.63;;;13.98;90.05
8059;BME280;4072;42.668;23.396;2022-11-03T07:03:33;95715.69;;;14.10;90.83
8059;BME280;4072;42.668;23.396;2022-11-03T07:06:16;95727.00;;;14.17;90.20
8059;BME280;4072;42.668;23.396;2022-11-03T07:08:49;95715.56;;;14.31;89.58
8059;BME280;4072;42.668;23.396;2022-11-03T07:11:20;95723.72;;;14.31;91.00
8059;BME280;4072;42.668;23.396;2022-11-03T07:13:50;95727.78;;;14.54;90.79
8059;BME280;4072;42.668;23.396;2022-11-03T07:16:25;95721.44;;;14.57;90.32
8059;BME280;4072;42.668;23.396;2022-11-03T07:18:58;95720.38;;;14.54;90.92
8059;BME280;4072;42.668;23.396;2022-11-03T07:21:33;95696.78;;;14.51;91.69
8059;BME280;4072;42.668;23.396;2022-11-03T07:24:12;95718.06;;;14.71;91.96
8059;BME280;4072;42.668;23.396;2022-11-03T07:26:42;95712.72;;;14.95;91.36
8059;BME280;4072;42.668;23.396;2022-11-03T07:29:17;95712.50;;;15.16;89.16
8059;BME280;4072;42.668;23.396;2022-11-03T07:31:47;95714.59;;;15.21;88.82
8059;BME280;4072;42.668;23.396;2022-11-03T07:34:20;95707.44;;;15.33;87.29
8059;BME280;4072;42.668;23.396;2022-11-03T07:36:50;95717.28;;;15.30;88.53
8059;BME280;4072;42.668;23.396;2022-11-03T07:39:21;95697.59;;;15.26;88.84
8059;BME280;4072;42.668;23.396;2022-11-03T07:41:51;95706.19;;;15.43;87.77
8059;BME280;4072;42.668;23.396;2022-11-03T07:44:20;95706.81;;;15.38;88.91
8059;BME280;4072;42.668;23.396;2022-11-03T07:46:49;95709.91;;;15.54;88.56
8059;BME280;4072;42.668;23.396;2022-11-03T07:49:25;95713.84;;;15.53;89.33
8059;BME280;4072;42.668;23.396;2022-11-03T07:51:55;95709.34;;;15.74;88.94
8059;BME280;4072;42.668;23.396;2022-11-03T07:54:27;95704.34;;;15.72;88.50
8059;BME280;4072;42.668;23.396;2022-11-03T07:56:58;95701.25;;;15.56;90.03
8059;BME280;4072;42.668;23.396;2022-11-03T07:59:30;95698.84;;;15.58;90.85
8059;BME280;4072;42.668;23.396;2022-11-03T08:02:00;95701.00;;;15.77;90.69
8059;BME280;4072;42.668;23.396;2022-11-03T08:04:33;95657.34;;;15.77;89.07
8059;BME280;4072;42.668;23.396;2022-11-03T08:07:02;95696.91;;;15.96;89.22
8059;BME280;4072;42.668;23.396;2022-11-03T08:09:30;95688.88;;;16.16;89.49
8059;BME280;4072;42.668;23.396;2022-11-03T08:11:59;95682.00;;;16.44;86.84
8059;BME280;4072;42.668;23.396;2022-11-03T08:14:27;95684.84;;;16.64;85.01
8059;BME280;4072;42.668;23.396;2022-11-03T08:16:57;95687.09;;;16.95;82.97
8059;BME280;4072;42.668;23.396;2022-11-03T08:19:25;95685.47;;;16.88;81.60
8059;BME280;4072;42.668;23.396;2022-11-03T08:22:01;95679.94;;;16.68;83.18
8059;BME280;4072;42.668;23.396;2022-11-03T08:24:29;95674.56;;;16.59;84.73
8059;BME280;4072;42.668;23.396;2022-11-03T08:26:57;95660.53;;;16.66;84.00
8059;BME280;4072;42.668;23.396;2022-11-03T08:29:25;95677.84;;;16.92;83.95
8059;BME280;4072;42.668;23.396;2022-11-03T08:31:53;95656.72;;;16.93;82.09
8059;BME280;4072;42.668;23.396;2022-11-03T08:34:22;95678.22;;;17.14;81.73
8059;BME280;4072;42.668;23.396;2022-11-03T08:36:51;95669.84;;;17.03;82.82
8059;BME280;4072;42.668;23.396;2022-11-03T08:39:21;95657.13;;;17.00;83.11
8059;BME280;4072;42.668;23.396;2022-11-03T08:41:49;95668.03;;;17.00;83.43
8059;BME280;4072;42.668;23.396;2022-11-03T08:44:19;95660.69;;;16.92;83.44
8059;BME280;4072;42.668;23.396;2022-11-03T08:46:47;95663.53;;;16.97;83.62
8059;BME280;4072;42.668;23.396;2022-11-03T08:49:15;95668.69;;;16.95;83.75
8059;BME280;4072;42.668;23.396;2022-11-03T08:51:43;95675.22;;;16.98;84.70
8059;BME280;4072;42.668;23.396;2022-11-03T08:54:11;95667.50;;;16.96;84.39
8059;BME280;4072;42.668;23.396;2022-11-03T08:56:41;95663.53;;;16.97;83.94
8059;BME280;4072;42.668;23.396;2022-11-03T08:59:12;95667.28;;;17.00;83.86
8059;BME280;4072;42.668;23.396;2022-11-03T09:01:40;95672.09;;;16.90;84.98
8059;BME280;4072;42.668;23.396;2022-11-03T09:04:10;95670.88;;;16.91;84.73
8059;BME280;4072;42.668;23.396;2022-11-03T09:06:39;95668.31;;;17.02;84.94
8059;BME280;4072;42.668;23.396;2022-11-03T09:09:08;95654.63;;;17.17;83.56
8059;BME280;4072;42.668;23.396;2022-11-03T09:11:58;95661.00;;;17.28;81.78
8059;BME280;4072;42.668;23.396;2022-11-03T09:14:26;95660.16;;;17.22;81.64
8059;BME280;4072;42.668;23.396;2022-11-03T09:16:56;95655.16;;;17.35;81.16
8059;BME280;4072;42.668;23.396;2022-11-03T09:19:24;95645.13;;;17.47;79.58
8059;BME280;4072;42.668;23.396;2022-11-03T09:21:52;95636.69;;;17.65;78.18
8059;BME280;4072;42.668;23.396;2022-11-03T09:24:20;95627.31;;;17.72;76.93
8059;BME280;4072;42.668;23.396;2022-11-03T09:26:47;95630.22;;;17.88;75.95
8059;BME280;4072;42.668;23.396;2022-11-03T09:29:18;95633.44;;;17.87;75.08
8059;BME280;4072;42.668;23.396;2022-11-03T09:31:46;95607.72;;;17.79;74.27
8059;BME280;4072;42.668;23.396;2022-11-03T09:34:14;95627.78;;;18.16;73.81
8059;BME280;4072;42.668;23.396;2022-11-03T09:36:42;95624.34;;;18.41;72.29
8059;BME280;4072;42.668;23.396;2022-11-03T09:39:18;95627.06;;;18.66;69.37
8059;BME280;4072;42.668;23.396;2022-11-03T09:41:47;95589.06;;;18.48;68.02
8059;BME280;4072;42.668;23.396;2022-11-03T09:44:26;95617.94;;;18.75;67.09
8059;BME280;4072;42.668;23.396;2022-11-03T09:46:54;95585.59;;;18.53;67.04
8059;BME280;4072;42.668;23.396;2022-11-03T09:49:24;95605.63;;;18.65;66.76
8059;BME280;4072;42.668;23.396;2022-11-03T09:51:54;95611.47;;;18.78;66.65
8059;BME280;4072;42.668;23.396;2022-11-03T09:54:22;95594.06;;;18.81;65.73
8059;BME280;4072;42.668;23.396;2022-11-03T09:56:52;95600.03;;;18.79;65.25
8059;BME280;4072;42.668;23.396;2022-11-03T09:59:22;95590.63;;;18.91;64.40
8059;BME280;4072;42.668;23.396;2022-11-03T10:01:52;95592.72;;;19.02;63.45
8059;BME280;4072;42.668;23.396;2022-11-03T10:04:25;95594.66;;;18.96;63.51
8059;BME280;4072;42.668;23.396;2022-11-03T10:06:54;95583.25;;;19.03;63.04
8059;BME280;4072;42.668;23.396;2022-11-03T10:09:24;95586.53;;;19.12;62.22
8059;BME280;4072;42.668;23.396;2022-11-03T10:11:55;95574.09;;;19.17;61.36
8059;BME280;4072;42.668;23.396;2022-11-03T10:14:25;95582.03;;;19.51;60.24
8059;BME280;4072;42.668;23.396;2022-11-03T10:16:57;95571.94;;;19.85;59.41
8059;BME280;4072;42.668;23.396;2022-11-03T10:19:28;95570.22;;;19.98;56.04
8059;BME280;4072;42.668;23.396;2022-11-03T10:21:58;95566.31;;;20.16;55.27
8059;BME280;4072;42.668;23.396;2022-11-03T10:24:28;95554.34;;;20.30;54.02
8059;BME280;4072;42.668;23.396;2022-11-03T10:26:57;95558.09;;;20.38;51.94
8059;BME280;4072;42.668;23.396;2022-11-03T10:29:27;95532.53;;;19.99;51.69
8059;BME280;4072;42.668;23.396;2022-11-03T10:32:27;95550.84;;;20.30;51.37
8059;BME280;4072;42.668;23.396;2022-11-03T10:34:56;95517.13;;;20.18;51.55
8059;BME280;4072;42.668;23.396;2022-11-03T10:37:25;95528.84;;;20.24;50.84
8059;BME280;4072;42.668;23.396;2022-11-03T10:39:55;95539.84;;;20.46;50.56
8059;BME280;4072;42.668;23.396;2022-11-03T10:42:25;95535.38;;;20.65;50.40
8059;BME280;4072;42.668;23.396;2022-11-03T10:45:14;95528.38;;;20.81;49.48
8059;BME280;4072;42.668;23.396;2022-11-03T10:47:58;95513.34;;;20.87;49.75
8059;BME280;4072;42.668;23.396;2022-11-03T10:50:27;95516.84;;;21.04;47.48
8059;BME280;4072;42.668;23.396;2022-11-03T10:52:56;95503.84;;;20.77;47.33
8059;BME280;4072;42.668;23.396;2022-11-03T10:55:25;95511.84;;;20.86;48.14
8059;BME280;4072;42.668;23.396;2022-11-03T10:57:54;95493.84;;;20.91;46.15
8059;BME280;4072;42.668;23.396;2022-11-03T11:00:24;95504.31;;;20.92;44.21
8059;BME280;4072;42.668;23.396;2022-11-03T11:02:58;95489.38;;;20.60;46.71
8059;BME280;4072;42.668;23.396;2022-11-03T11:05:29;95490.88;;;20.72;45.95
8059;BME280;4072;42.668;23.396;2022-11-03T11:08:00;95487.81;;;20.92;45.60
8059;BME280;4072;42.668;23.396;2022-11-03T11:10:30;95489.09;;;20.97;44.49
8059;BME280;4072;42.668;23.396;2022-11-03T11:13:12;95482.31;;;20.92;44.58
8059;BME280;4072;42.668;23.396;2022-11-03T11:15:51;95473.88;;;20.74;44.94
8059;BME280;4072;42.668;23.396;2022-11-03T11:27:56;95464.72;;;21.34;43.01
8059;BME280;4072;42.668;23.396;2022-11-03T11:33:45;95451.09;;;21.52;43.18
8059;BME280;4072;42.668;23.396;2022-11-03T11:36:22;95448.28;;;21.69;42.72
8059;BME280;4072;42.668;23.396;2022-11-03T11:39:00;95446.84;;;21.97;41.83
8059;BME280;4072;42.668;23.396;2022-11-03T11:42:04;95451.34;;;22.00;41.67
8059;BME280;4072;42.668;23.396;2022-11-03T11:44:51;95448.66;;;21.89;40.81
8059;BME280;4072;42.668;23.396;2022-11-03T11:47:44;95448.66;;;21.89;39.90
8059;BME280;4072;42.668;23.396;2022-11-03T11:50:29;95445.44;;;21.85;39.12
8059;BME280;4072;42.668;23.396;2022-11-03T11:53:09;95422.97;;;21.76;38.56
8059;BME280;4072;42.668;23.396;2022-11-03T11:55:41;95429.84;;;21.93;39.04
8059;BME280;4072;42.668;23.396;2022-11-03T11:58:29;95427.63;;;21.92;37.51
8059;BME280;4072;42.668;23.396;2022-11-03T12:01:04;95412.66;;;21.82;37.72
8059;BME280;4072;42.668;23.396;2022-11-03T12:03:40;95424.13;;;21.91;38.37
8059;BME280;4072;42.668;23.396;2022-11-03T12:06:11;95407.16;;;21.82;38.74
8059;BME280;4072;42.668;23.396;2022-11-03T12:08:41;95376.91;;;21.76;38.74
8059;BME280;4072;42.668;23.396;2022-11-03T12:11:11;95405.31;;;21.95;39.67
8059;BME280;4072;42.668;23.396;2022-11-03T12:13:46;95405.72;;;22.05;39.71
8059;BME280;4072;42.668;23.396;2022-11-03T12:16:31;95363.84;;;21.82;38.58
8059;BME280;4072;42.668;23.396;2022-11-03T12:22:07;95407.72;;;22.04;39.14
8059;BME280;4072;42.668;23.396;2022-11-03T12:24:47;95395.78;;;21.96;39.27
8059;BME280;4072;42.668;23.396;2022-11-03T12:30:11;95393.03;;;21.96;38.63
8059;BME280;4072;42.668;23.396;2022-11-03T12:32:43;95389.00;;;21.97;38.33
8059;BME280;4072;42.668;23.396;2022-11-03T12:35:12;95383.84;;;21.88;37.96
8059;BME280;4072;42.668;23.396;2022-11-03T12:37:40;95386.81;;;21.90;37.82
8059;BME280;4072;42.668;23.396;2022-11-03T12:40:10;95382.59;;;21.84;37.94
8059;BME280;4072;42.668;23.396;2022-11-03T12:42:40;95383.91;;;21.77;37.98
8059;BME280;4072;42.668;23.396;2022-11-03T12:45:09;95378.53;;;21.90;37.75
8059;BME280;4072;42.668;23.396;2022-11-03T12:47:39;95370.00;;;21.94;37.43
8059;BME280;4072;42.668;23.396;2022-11-03T12:50:09;95377.31;;;21.91;37.51
8059;BME280;4072;42.668;23.396;2022-11-03T12:52:39;95365.63;;;22.09;36.99
8059;BME280;4072;42.668;23.396;2022-11-03T12:55:07;95358.13;;;22.04;37.07
8059;BME280;4072;42.668;23.396;2022-11-03T12:57:36;95370.88;;;22.07;36.98
8059;BME280;4072;42.668;23.396;2022-11-03T13:00:05;95363.09;;;22.11;36.79
8059;BME280;4072;42.668;23.396;2022-11-03T13:02:34;95361.56;;;22.16;36.76
8059;BME280;4072;42.668;23.396;2022-11-03T13:05:04;95356.44;;;22.25;36.36
8059;BME280;4072;42.668;23.396;2022-11-03T13:07:34;95350.94;;;22.25;36.20
8059;BME280;4072;42.668;23.396;2022-11-03T13:10:03;95360.75;;;22.21;36.34
8059;BME280;4072;42.668;23.396;2022-11-03T13:12:31;95343.22;;;22.18;36.20
8059;BME280;4072;42.668;23.396;2022-11-03T13:15:02;95323.59;;;22.03;36.46
8059;BME280;4072;42.668;23.396;2022-11-03T13:17:31;95310.59;;;21.98;36.65
8059;BME280;4072;42.668;23.396;2022-11-03T13:20:19;95351.00;;;22.44;36.33
8059;BME280;4072;42.668;23.396;2022-11-03T13:22:49;95353.16;;;22.27;36.62
8059;BME280;4072;42.668;23.396;2022-11-03T13:25:18;95331.03;;;22.08;36.87
8059;BME280;4072;42.668;23.396;2022-11-03T13:27:50;95343.47;;;22.20;36.88
8059;BME280;4072;42.668;23.396;2022-11-03T13:30:20;95343.47;;;22.20;36.91
8059;BME280;4072;42.668;23.396;2022-11-03T13:32:49;95342.34;;;22.34;36.71
8059;BME280;4072;42.668;23.396;2022-11-03T13:35:21;95328.31;;;22.32;36.59
8059;BME280;4072;42.668;23.396;2022-11-03T13:37:51;95313.16;;;22.20;36.36
8059;BME280;4072;42.668;23.396;2022-11-03T13:40:19;95332.78;;;22.35;36.33
8059;BME280;4072;42.668;23.396;2022-11-03T13:43:08;95332.78;;;22.35;36.47
8059;BME280;4072;42.668;23.396;2022-11-03T13:45:36;95334.75;;;22.40;36.41
8059;BME280;4072;42.668;23.396;2022-11-03T13:48:05;95343.81;;;22.35;36.54
8059;BME280;4072;42.668;23.396;2022-11-03T13:50:53;95328.31;;;22.80;35.62
8059;BME280;4072;42.668;23.396;2022-11-03T13:53:24;95332.94;;;23.47;35.01
8059;BME280;4072;42.668;23.396;2022-11-03T13:56:13;95303.25;;;24.29;33.10
8059;BME280;4072;42.668;23.396;2022-11-03T13:58:47;95333.47;;;25.52;31.44